Time;durP1;ratioP1;P1;durP2;ratioP2;P2;SDS_P1;SDS_P2;PMS_P1;PMS_P2;Temp;Humidity;BMP_temperature;BMP_pressure;BME280_temperature;BME280_humidity;BME280_pressure;Samples;Min_cycle;Max_cycle;Signal;HPM_P1;HPM_P2
2023/02/26 00:01:48;;;;;;;15.20;7.20;;;;;;;1.46;82.72;94311.29;106570;1276;25309;-72
2023/02/26 00:04:17;;;;;;;9.00;4.40;;;;;;;1.42;82.94;94310.79;106563;1276;22525;-71
2023/02/26 00:06:51;;;;;;;6.70;4.00;;;;;;;1.39;82.58;94308.38;106605;1276;23008;-71
2023/02/26 00:09:23;;;;;;;5.20;2.60;;;;;;;1.40;82.81;94312.35;106575;1276;22531;-71
2023/02/26 00:11:52;;;;;;;2.80;1.70;;;;;;;1.43;82.70;94315.80;106654;1276;22935;-71
2023/02/26 00:14:21;;;;;;;4.40;2.30;;;;;;;1.44;82.66;94316.33;106660;1276;24227;-71
2023/02/26 00:17:22;;;;;;;4.50;2.30;;;;;;;1.44;82.67;94320.66;106659;1276;22531;-71
2023/02/26 00:19:50;;;;;;;6.80;3.00;;;;;;;1.40;83.22;94324.83;106575;1276;23887;-71
2023/02/26 00:22:19;;;;;;;14.80;7.60;;;;;;;1.40;84.29;94322.23;106566;1276;25280;-71
2023/02/26 00:24:48;;;;;;;17.60;8.20;;;;;;;1.44;84.58;94323.23;106655;1276;22632;-72
2023/02/26 00:27:16;;;;;;;19.60;9.90;;;;;;;1.45;84.56;94327.91;106574;1276;22583;-72
2023/02/26 00:29:45;;;;;;;21.60;10.30;;;;;;;1.46;84.77;94328.96;106642;1276;22814;-71
2023/02/26 00:32:13;;;;;;;23.60;11.40;;;;;;;1.57;84.98;94332.20;106526;1276;22540;-71
2023/02/26 00:34:46;;;;;;;19.50;10.00;;;;;;;1.65;84.63;94335.11;106583;1276;22631;-71
2023/02/26 00:37:27;;;;;;;22.80;9.60;;;;;;;1.66;84.27;94335.63;106567;1276;22519;-72
2023/02/26 00:40:05;;;;;;;17.70;9.10;;;;;;;1.62;84.39;94337.20;106756;1276;25233;-72
2023/02/26 00:42:34;;;;;;;18.00;8.50;;;;;;;1.61;84.55;94336.52;106571;1270;22699;-72
2023/02/26 00:45:03;;;;;;;12.60;7.80;;;;;;;1.64;84.52;94332.36;106599;1276;26515;-70
2023/02/26 00:47:56;;;;;;;9.50;5.90;;;;;;;1.72;84.63;94330.23;106633;1276;24250;-72
2023/02/26 00:50:25;;;;;;;9.80;5.20;;;;;;;1.79;84.45;94333.31;106643;1276;25296;-69
2023/02/26 00:53:12;;;;;;;16.80;6.90;;;;;;;1.75;84.11;94334.39;106619;1276;22639;-72
2023/02/26 00:55:40;;;;;;;11.30;6.00;;;;;;;1.72;84.24;94333.52;106627;1276;24204;-72
2023/02/26 00:58:08;;;;;;;16.90;8.70;;;;;;;1.75;84.43;94329.00;106586;1276;22520;-72
2023/02/26 01:00:36;;;;;;;13.90;8.30;;;;;;;1.75;84.22;94325.52;106559;1276;22524;-72
2023/02/26 01:03:05;;;;;;;10.70;6.00;;;;;;;1.76;84.10;94320.84;106528;1276;22727;-71
2023/02/26 01:05:34;;;;;;;6.20;3.00;;;;;;;1.67;83.88;94323.67;106412;1276;25347;-72
2023/02/26 01:08:12;;;;;;;5.90;3.40;;;;;;;1.56;84.09;94323.90;106682;1276;22643;-72
2023/02/26 01:10:42;;;;;;;10.70;4.10;;;;;;;1.49;84.63;94322.54;106568;1276;22803;-72
2023/02/26 01:13:11;;;;;;;6.00;3.30;;;;;;;1.41;84.72;94323.95;106579;1276;22844;-72
2023/02/26 01:15:47;;;;;;;10.10;5.90;;;;;;;1.34;84.85;94323.98;106474;1276;22527;-73
2023/02/26 01:18:29;;;;;;;9.00;5.40;;;;;;;1.27;84.94;94322.09;106572;1276;25475;-72
2023/02/26 01:21:03;;;;;;;5.00;3.70;;;;;;;1.23;85.02;94314.84;106542;1276;22788;-73
2023/02/26 01:23:37;;;;;;;8.50;4.70;;;;;;;1.17;85.19;94307.41;106634;1276;22534;-72
2023/02/26 01:26:12;;;;;;;8.50;4.50;;;;;;;1.11;85.49;94307.08;106571;1276;24372;-72
2023/02/26 01:28:41;;;;;;;4.80;3.20;;;;;;;1.05;85.70;94304.69;106621;1276;22573;-72
2023/02/26 01:31:23;;;;;;;6.70;3.90;;;;;;;1.01;85.74;94298.29;106598;1276;22560;-72
2023/02/26 01:34:02;;;;;;;6.90;4.10;;;;;;;0.98;85.95;94297.26;106614;1276;23889;-73
2023/02/26 01:36:38;;;;;;;8.40;3.90;;;;;;;0.96;86.41;94297.60;106601;1276;25305;-72
2023/02/26 01:39:30;;;;;;;5.30;3.20;;;;;;;0.91;87.21;94299.17;106578;1276;22527;-72
2023/02/26 01:42:14;;;;;;;4.30;2.80;;;;;;;0.86;87.96;94300.23;106557;1276;22833;-72
2023/02/26 01:45:03;;;;;;;5.10;2.90;;;;;;;0.83;87.60;94299.02;106617;1276;22530;-72
2023/02/26 01:47:42;;;;;;;4.30;1.90;;;;;;;0.83;87.48;94302.83;106558;1276;24373;-72
2023/02/26 01:50:15;;;;;;;3.90;2.10;;;;;;;0.77;86.95;94307.52;106552;1276;24334;-72
2023/02/26 01:52:46;;;;;;;3.70;2.40;;;;;;;0.77;86.76;94317.02;106628;1276;24298;-72
2023/02/26 01:55:18;;;;;;;2.70;1.70;;;;;;;0.80;86.85;94318.77;106552;1276;22530;-72
2023/02/26 01:57:49;;;;;;;4.00;2.20;;;;;;;0.82;87.66;94319.11;106607;1276;25635;-72
2023/02/26 02:00:18;;;;;;;2.40;1.60;;;;;;;0.86;87.89;94324.47;106561;1276;22540;-72
2023/02/26 02:02:46;;;;;;;2.10;1.30;;;;;;;0.91;87.81;94324.45;106561;1276;22637;-72
2023/02/26 02:05:31;;;;;;;1.90;1.40;;;;;;;0.91;87.18;94313.89;106630;1276;24341;-72
2023/02/26 02:08:00;;;;;;;1.90;1.50;;;;;;;0.90;87.82;94307.66;106576;1276;25367;-72
2023/02/26 02:10:29;;;;;;;2.50;1.30;;;;;;;0.98;88.07;94308.17;106604;1276;23099;-71
2023/02/26 02:13:34;;;;;;;1.80;1.20;;;;;;;0.99;87.52;94306.95;106621;1276;22656;-72
2023/02/26 02:16:30;;;;;;;2.60;1.50;;;;;;;0.99;87.62;94306.43;106589;1276;24277;-72
2023/02/26 02:19:13;;;;;;;3.10;1.60;;;;;;;1.05;87.38;94309.86;106739;1276;22527;-72
2023/02/26 02:22:04;;;;;;;3.30;2.40;;;;;;;1.12;87.14;94320.23;106607;1276;22642;-72
2023/02/26 02:24:51;;;;;;;3.50;1.90;;;;;;;1.17;87.02;94333.55;106600;1276;22659;-72
2023/02/26 02:28:00;;;;;;;3.10;1.80;;;;;;;1.14;86.96;94330.80;106539;1276;22535;-72
2023/02/26 02:31:00;;;;;;;3.50;1.70;;;;;;;1.09;87.64;94324.41;106540;1260;22647;-72
2023/02/26 02:33:35;;;;;;;2.50;2.00;;;;;;;1.20;88.14;94328.19;106685;1276;24350;-71
2023/02/26 02:36:12;;;;;;;2.40;1.90;;;;;;;1.35;87.90;94321.90;106695;1270;22659;-71
2023/02/26 02:38:50;;;;;;;2.50;1.50;;;;;;;1.45;87.44;94318.57;106607;1276;22662;-72
2023/02/26 02:41:25;;;;;;;3.30;1.60;;;;;;;1.54;87.18;94314.54;106590;1264;24273;-72
2023/02/26 02:43:56;;;;;;;4.20;1.80;;;;;;;1.47;86.39;94310.41;106555;1276;22556;-72
2023/02/26 02:46:30;;;;;;;2.30;1.80;;;;;;;1.35;86.26;94317.73;106578;1276;24223;-72
2023/02/26 02:49:10;;;;;;;2.20;1.60;;;;;;;1.29;86.85;94310.84;106605;1276;22551;-72
2023/02/26 02:51:48;;;;;;;3.00;1.90;;;;;;;1.28;86.53;94310.66;106611;1276;25490;-72
2023/02/26 02:54:26;;;;;;;1.90;1.40;;;;;;;1.22;86.52;94306.71;106628;1276;25384;-72
2023/02/26 02:57:03;;;;;;;3.70;1.90;;;;;;;1.12;87.28;94299.80;106587;1276;22526;-72
2023/02/26 02:59:41;;;;;;;2.20;1.60;;;;;;;1.06;87.30;94305.71;106594;1276;22793;-72
2023/02/26 03:02:15;;;;;;;1.90;1.30;;;;;;;1.01;87.48;94316.29;106562;1276;25335;-72
2023/02/26 03:04:44;;;;;;;2.70;1.80;;;;;;;1.00;86.95;94323.73;106636;1276;24228;-72
2023/02/26 03:07:13;;;;;;;2.70;1.70;;;;;;;0.99;86.91;94320.11;106616;1276;22542;-72
2023/02/26 03:09:42;;;;;;;2.90;1.60;;;;;;;0.95;87.18;94316.30;106645;1273;25396;-72
2023/02/26 03:12:11;;;;;;;2.70;1.60;;;;;;;0.90;87.19;94332.77;106590;1276;22520;-72
2023/02/26 03:14:40;;;;;;;8.60;3.80;;;;;;;0.85;87.09;94334.84;106599;1276;25262;-72
2023/02/26 03:17:19;;;;;;;15.20;7.40;;;;;;;0.83;87.45;94334.16;106610;1276;22523;-72
2023/02/26 03:19:59;;;;;;;5.10;3.10;;;;;;;0.81;87.60;94335.20;106568;1276;24250;-72
2023/02/26 03:22:37;;;;;;;4.10;2.70;;;;;;;0.77;87.63;94341.96;106881;1273;22550;-72
2023/02/26 03:25:41;;;;;;;2.60;1.80;;;;;;;0.78;87.63;94352.86;106603;1276;22531;-72
2023/02/26 03:28:35;;;;;;;2.60;1.90;;;;;;;0.76;88.69;94339.70;106596;1276;22653;-72
2023/02/26 03:31:09;;;;;;;2.70;1.50;;;;;;;0.71;88.06;94340.76;106624;1276;26032;-72
2023/02/26 03:34:05;;;;;;;2.60;2.00;;;;;;;0.67;88.09;94314.80;106570;1276;22627;-72
2023/02/26 03:36:49;;;;;;;5.00;3.10;;;;;;;0.67;88.03;94333.14;106749;1276;24364;-72
2023/02/26 03:39:36;;;;;;;5.60;3.30;;;;;;;0.67;88.05;94348.89;106653;1276;24350;-72
2023/02/26 03:42:12;;;;;;;6.70;3.50;;;;;;;0.64;88.01;94348.89;106621;1276;22530;-72
2023/02/26 03:44:57;;;;;;;6.60;4.50;;;;;;;0.61;88.32;94358.59;106565;1276;22540;-72
2023/02/26 03:47:28;;;;;;;8.70;4.50;;;;;;;0.63;88.34;94367.58;106615;1276;25464;-72
2023/02/26 03:49:58;;;;;;;5.60;3.70;;;;;;;0.61;88.17;94364.64;106544;1276;22746;-72
2023/02/26 03:52:30;;;;;;;4.90;2.70;;;;;;;0.60;88.37;94366.36;106580;1276;22635;-72
2023/02/26 03:55:21;;;;;;;3.60;2.50;;;;;;;0.64;88.77;94366.38;106594;1276;22644;-72
2023/02/26 03:58:07;;;;;;;8.90;5.30;;;;;;;0.69;88.96;94373.47;106559;1276;22536;-72
2023/02/26 04:01:19;;;;;;;4.50;2.70;;;;;;;0.73;89.22;94363.43;106097;1282;23750;-72
2023/02/26 04:04:24;;;;;;;3.10;2.40;;;;;;;0.84;89.42;94356.66;106555;1276;24202;-72
2023/02/26 04:06:54;;;;;;;2.00;1.60;;;;;;;0.94;89.27;94356.65;106164;1276;23031;-69
2023/02/26 04:09:23;;;;;;;2.60;1.80;;;;;;;0.91;88.60;94357.34;106625;1276;25274;-72
2023/02/26 04:11:54;;;;;;;3.00;2.00;;;;;;;0.89;88.45;94356.13;106616;1276;22756;-72
2023/02/26 04:14:22;;;;;;;3.20;2.10;;;;;;;0.86;88.02;94344.70;106613;1276;22528;-73
2023/02/26 04:16:52;;;;;;;3.40;1.80;;;;;;;0.86;88.37;94346.79;106480;1275;22532;-72
2023/02/26 04:19:20;;;;;;;2.30;1.90;;;;;;;0.87;88.23;94343.51;106696;1276;22805;-72
2023/02/26 04:21:49;;;;;;;2.60;2.00;;;;;;;0.87;88.13;94333.11;106572;1276;22524;-72
2023/02/26 04:24:17;;;;;;;3.40;1.90;;;;;;;0.88;88.05;94332.59;106601;1276;22576;-72
2023/02/26 04:26:45;;;;;;;2.30;1.90;;;;;;;0.88;88.15;94330.52;106544;1276;24234;-72
2023/02/26 04:29:14;;;;;;;3.00;2.20;;;;;;;0.88;88.46;94332.07;106622;1276;23305;-72
2023/02/26 04:31:42;;;;;;;4.10;2.90;;;;;;;0.90;88.60;94333.98;106614;1273;22558;-72
2023/02/26 04:34:11;;;;;;;3.70;2.10;;;;;;;0.96;88.69;94334.30;106640;1276;22525;-72
2023/02/26 04:36:40;;;;;;;3.70;2.30;;;;;;;0.99;88.11;94326.17;106540;1276;24388;-72
2023/02/26 04:39:09;;;;;;;4.00;2.30;;;;;;;0.95;88.04;94326.52;106573;1276;22543;-72
2023/02/26 04:41:38;;;;;;;7.50;4.80;;;;;;;0.92;87.91;94329.48;106801;1276;24251;-72
2023/02/26 04:44:06;;;;;;;6.20;4.70;;;;;;;0.87;88.09;94337.10;106583;1276;22525;-72
2023/02/26 04:46:37;;;;;;;3.60;2.70;;;;;;;0.87;88.17;94338.48;106581;1276;25266;-71
2023/02/26 04:49:05;;;;;;;4.10;2.40;;;;;;;0.86;88.69;94349.23;106430;1276;22520;-71
2023/02/26 04:51:33;;;;;;;2.50;1.70;;;;;;;0.86;88.47;94354.59;106597;1276;24328;-72
2023/02/26 04:54:01;;;;;;;20.00;9.80;;;;;;;0.83;88.07;94352.17;106532;1276;22517;-72
2023/02/26 04:56:32;;;;;;;9.80;6.10;;;;;;;0.79;88.06;94355.98;106591;1276;23745;-72
2023/02/26 04:59:01;;;;;;;3.30;2.40;;;;;;;0.78;88.43;94356.33;106630;1276;22530;-72
2023/02/26 05:01:30;;;;;;;2.90;2.30;;;;;;;0.75;88.35;94361.01;106616;1276;25622;-72
2023/02/26 05:03:58;;;;;;;7.90;4.90;;;;;;;0.72;88.33;94363.61;106639;1260;22649;-71
2023/02/26 05:06:26;;;;;;;7.70;4.50;;;;;;;0.73;88.52;94362.21;106536;1276;22548;-72
2023/02/26 05:08:54;;;;;;;8.80;5.20;;;;;;;0.71;88.69;94366.38;106656;1276;22531;-72
2023/02/26 05:11:23;;;;;;;5.50;3.40;;;;;;;0.69;88.63;94367.75;106579;1276;22782;-72
2023/02/26 05:13:51;;;;;;;4.90;2.90;;;;;;;0.66;88.99;94372.26;106544;1276;24057;-72
2023/02/26 05:16:19;;;;;;;4.90;2.90;;;;;;;0.63;88.79;94374.16;106567;1276;22756;-72
2023/02/26 05:18:48;;;;;;;4.50;3.30;;;;;;;0.61;88.92;94374.67;106554;1276;22524;-72
2023/02/26 05:21:16;;;;;;;5.20;3.20;;;;;;;0.60;89.53;94372.42;106543;1276;22639;-72
2023/02/26 05:23:44;;;;;;;5.50;3.30;;;;;;;0.60;89.83;94367.58;106364;1276;25473;-72
2023/02/26 05:26:12;;;;;;;12.20;7.40;;;;;;;0.57;89.79;94371.56;106379;1276;22527;-71
2023/02/26 05:28:44;;;;;;;15.60;8.40;;;;;;;0.56;89.43;94374.86;106588;1276;22534;-71
2023/02/26 05:31:12;;;;;;;16.90;9.70;;;;;;;0.54;89.42;94371.73;106600;1276;25319;-71
2023/02/26 05:33:41;;;;;;;11.70;7.10;;;;;;;0.53;89.95;94366.39;106606;1276;22527;-72
2023/02/26 05:36:10;;;;;;;14.30;7.40;;;;;;;0.53;89.61;94368.96;106611;1276;24019;-71
2023/02/26 05:38:38;;;;;;;14.40;8.30;;;;;;;0.53;89.83;94369.48;106548;1276;22539;-71
2023/02/26 05:41:06;;;;;;;8.90;6.10;;;;;;;0.56;89.50;94367.24;106637;1276;24253;-71
2023/02/26 05:43:36;;;;;;;7.40;5.50;;;;;;;0.59;89.26;94365.33;106718;1276;22569;-71
2023/02/26 05:46:05;;;;;;;5.50;3.70;;;;;;;0.61;89.22;94374.34;106629;1263;22524;-71
2023/02/26 05:48:33;;;;;;;5.50;4.10;;;;;;;0.64;89.21;94376.41;106687;1276;22534;-72
2023/02/26 05:51:02;;;;;;;4.90;3.60;;;;;;;0.68;89.65;94378.84;106582;1276;22525;-72
2023/02/26 05:53:30;;;;;;;4.30;2.90;;;;;;;0.72;89.64;94377.80;106588;1276;25358;-72
2023/02/26 05:55:58;;;;;;;3.60;2.80;;;;;;;0.76;89.56;94377.10;106579;1276;24717;-72
2023/02/26 05:58:26;;;;;;;6.40;4.50;;;;;;;0.78;89.38;94374.51;106652;1276;22581;-72
2023/02/26 06:00:57;;;;;;;23.80;11.10;;;;;;;0.79;89.58;94369.65;106630;1276;24314;-72
2023/02/26 06:03:25;;;;;;;81.70;38.40;;;;;;;0.88;89.66;94371.20;106570;1276;25335;-72
2023/02/26 06:05:53;;;;;;;23.70;10.50;;;;;;;0.91;89.20;94369.98;106576;1276;25529;-72
2023/02/26 06:08:22;;;;;;;22.90;11.10;;;;;;;0.91;88.97;94368.94;106637;1276;25356;-72
2023/02/26 06:10:51;;;;;;;9.30;4.70;;;;;;;0.96;89.10;94375.17;106582;1276;22594;-72
2023/02/26 06:13:19;;;;;;;6.30;4.10;;;;;;;0.96;88.73;94377.42;106565;1276;22526;-72
2023/02/26 06:15:51;;;;;;;13.80;9.40;;;;;;;0.99;89.06;94378.80;106618;1276;25278;-72
2023/02/26 06:18:19;;;;;;;31.90;19.70;;;;;;;1.08;89.07;94384.16;106577;1276;22646;-72
2023/02/26 06:20:47;;;;;;;27.70;18.50;;;;;;;1.11;88.88;94390.38;106596;1276;24298;-71
2023/02/26 06:23:15;;;;;;;27.90;17.50;;;;;;;1.19;89.03;94393.14;106661;1270;24283;-72
2023/02/26 06:25:44;;;;;;;12.60;8.40;;;;;;;1.22;88.65;94395.39;106598;1276;22537;-72
2023/02/26 06:28:12;;;;;;;15.60;11.10;;;;;;;1.33;89.01;94397.09;106567;1276;23952;-72
2023/02/26 06:30:40;;;;;;;7.00;5.20;;;;;;;1.39;88.47;94397.94;106589;1276;22520;-72
2023/02/26 06:33:08;;;;;;;7.60;5.00;;;;;;;1.40;88.05;94396.05;106592;1276;22804;-72
2023/02/26 06:35:37;;;;;;;11.40;7.80;;;;;;;1.40;87.89;94401.06;106567;1276;22777;-72
2023/02/26 06:38:05;;;;;;;29.60;17.50;;;;;;;1.42;87.86;94400.02;106600;1276;25334;-72
2023/02/26 06:40:33;;;;;;;43.90;20.60;;;;;;;1.44;87.91;94404.34;106585;1276;22548;-72
2023/02/26 06:43:01;;;;;;;38.90;21.10;;;;;;;1.45;87.67;94410.05;106588;1276;22615;-73
2023/02/26 06:45:30;;;;;;;38.40;20.50;;;;;;;1.42;87.36;94413.01;106746;1276;22523;-72
2023/02/26 06:47:59;;;;;;;27.10;15.00;;;;;;;1.40;87.43;94410.09;106639;1276;22533;-72
2023/02/26 06:50:27;;;;;;;24.50;14.20;;;;;;;1.43;87.83;94414.91;106571;1276;22649;-72
2023/02/26 06:52:56;;;;;;;19.10;10.30;;;;;;;1.46;87.77;94417.85;106585;1276;22533;-72
2023/02/26 06:55:27;;;;;;;12.90;9.10;;;;;;;1.48;87.60;94418.19;106563;1276;22522;-71
2023/02/26 06:57:56;;;;;;;11.70;8.10;;;;;;;1.47;87.33;94417.50;106609;1276;22535;-72
2023/02/26 07:00:25;;;;;;;15.30;9.70;;;;;;;1.46;87.40;94411.97;106595;1276;22531;-72
2023/02/26 07:02:53;;;;;;;18.10;10.80;;;;;;;1.49;87.49;94410.40;106649;1276;22523;-73
2023/02/26 07:05:22;;;;;;;10.00;7.10;;;;;;;1.49;87.03;94409.01;106608;1276;24718;-72
2023/02/26 07:07:51;;;;;;;14.50;9.40;;;;;;;1.47;86.89;94416.98;106628;1276;22527;-73
2023/02/26 07:10:20;;;;;;;28.80;16.40;;;;;;;1.46;87.13;94422.02;106560;1276;26593;-72
2023/02/26 07:12:48;;;;;;;18.30;10.80;;;;;;;1.48;87.17;94422.52;106622;1276;23965;-72
2023/02/26 07:15:17;;;;;;;24.70;14.20;;;;;;;1.49;86.85;94420.27;106598;1261;24375;-72
2023/02/26 07:17:45;;;;;;;28.00;15.10;;;;;;;1.50;86.91;94428.59;106669;1276;25387;-73
2023/02/26 07:20:13;;;;;;;13.90;9.10;;;;;;;1.54;86.87;94429.27;106559;1276;25277;-73
2023/02/26 07:22:41;;;;;;;8.20;5.50;;;;;;;1.53;86.48;94430.83;106580;1276;24256;-73
2023/02/26 07:25:11;;;;;;;16.50;8.80;;;;;;;1.58;86.97;94435.50;106526;1276;22524;-72
2023/02/26 07:27:39;;;;;;;58.20;26.30;;;;;;;1.65;87.00;94439.11;106595;1276;24206;-72
2023/02/26 07:30:11;;;;;;;91.70;34.50;;;;;;;1.71;86.67;94439.10;106593;1276;24196;-72
2023/02/26 07:32:39;;;;;;;39.80;18.80;;;;;;;1.74;86.44;94440.30;106550;1276;24196;-72
2023/02/26 07:35:08;;;;;;;70.80;33.60;;;;;;;1.82;86.57;94443.23;106552;1276;22566;-72
2023/02/26 07:37:36;;;;;;;80.80;35.90;;;;;;;1.86;86.22;94443.89;106635;1276;22747;-73
2023/02/26 07:40:05;;;;;;;112.60;71.20;;;;;;;1.89;85.75;94446.83;106548;1276;22559;-72
2023/02/26 07:42:33;;;;;;;73.30;46.60;;;;;;;1.93;85.97;94451.66;106623;1276;22542;-72
2023/02/26 07:45:02;;;;;;;28.80;21.00;;;;;;;1.99;85.44;94456.86;106582;1276;23880;-72
2023/02/26 07:47:30;;;;;;;23.30;15.90;;;;;;;1.98;85.05;94456.17;106570;1276;22593;-72
2023/02/26 07:49:59;;;;;;;15.00;9.40;;;;;;;2.04;85.48;94458.21;106583;1276;25516;-72
2023/02/26 07:52:27;;;;;;;59.80;36.40;;;;;;;2.09;85.01;94462.36;106631;1276;22816;-72
2023/02/26 07:54:56;;;;;;;22.50;15.70;;;;;;;2.15;84.95;94462.69;106651;1276;22523;-72
2023/02/26 07:57:24;;;;;;;26.00;21.00;;;;;;;2.19;84.78;94465.44;106585;1276;22538;-72
2023/02/26 07:59:52;;;;;;;29.30;20.00;;;;;;;2.23;84.52;94468.89;106557;1276;22534;-72
2023/02/26 08:02:22;;;;;;;26.30;17.20;;;;;;;2.22;84.07;94468.37;106592;1276;22656;-72
2023/02/26 08:04:51;;;;;;;44.70;25.50;;;;;;;2.18;84.06;94472.73;106595;1276;25471;-72
2023/02/26 08:07:19;;;;;;;91.40;53.10;;;;;;;2.12;83.76;94462.17;106514;1276;24267;-72
2023/02/26 08:09:47;;;;;;;37.40;25.10;;;;;;;2.07;84.05;94463.23;106642;1276;22534;-71
2023/02/26 08:12:15;;;;;;;23.70;17.30;;;;;;;2.06;84.29;94458.21;106563;1276;22534;-72
2023/02/26 08:14:44;;;;;;;22.20;16.30;;;;;;;2.11;84.56;94461.66;106596;1273;25287;-72
2023/02/26 08:17:13;;;;;;;11.60;8.50;;;;;;;2.17;84.60;94460.24;106602;1276;23310;-73
2023/02/26 08:19:41;;;;;;;5.60;4.30;;;;;;;2.21;84.51;94461.44;106600;1253;22944;-72
2023/02/26 08:22:09;;;;;;;48.00;30.80;;;;;;;2.21;84.08;94456.92;106567;1276;24262;-72
2023/02/26 08:24:38;;;;;;;30.70;21.20;;;;;;;2.22;84.26;94457.80;106617;1266;22639;-72
2023/02/26 08:27:06;;;;;;;37.20;25.00;;;;;;;2.17;83.80;94462.67;106627;1253;22541;-72
2023/02/26 08:29:34;;;;;;;53.10;40.20;;;;;;;2.09;83.74;94475.89;106551;1276;22537;-72
2023/02/26 08:32:03;;;;;;;16.90;13.40;;;;;;;2.06;83.84;94475.21;106657;1276;24292;-72
2023/02/26 08:34:31;;;;;;;38.10;25.90;;;;;;;2.02;83.72;94475.58;106604;1276;22540;-73
2023/02/26 08:37:00;;;;;;;15.70;10.50;;;;;;;1.98;83.90;94477.15;106562;1276;22534;-72
2023/02/26 08:39:31;;;;;;;15.80;11.90;;;;;;;1.95;84.14;94473.86;106547;1276;22523;-72
2023/02/26 08:42:00;;;;;;;12.40;9.10;;;;;;;1.90;84.22;94473.02;106590;1276;25330;-72
2023/02/26 08:44:28;;;;;;;14.10;10.00;;;;;;;1.88;84.49;94476.67;106621;1263;22812;-72
2023/02/26 08:46:56;;;;;;;12.00;8.00;;;;;;;1.85;84.65;94493.66;106684;1276;22934;-72
2023/02/26 08:49:25;;;;;;;13.70;9.20;;;;;;;1.80;84.72;94495.94;106624;1276;25240;-72
2023/02/26 08:51:53;;;;;;;20.10;11.90;;;;;;;1.75;84.85;94496.98;106660;1276;22517;-72
2023/02/26 08:54:21;;;;;;;28.30;17.80;;;;;;;1.75;85.10;94504.96;106595;1276;22552;-72
2023/02/26 08:56:50;;;;;;;27.20;16.80;;;;;;;1.75;85.28;94503.06;106588;1276;22523;-72
2023/02/26 08:59:18;;;;;;;21.30;13.10;;;;;;;1.71;85.31;94506.70;106691;1276;22656;-72
2023/02/26 09:01:46;;;;;;;16.20;10.00;;;;;;;1.68;85.65;94508.10;106606;1276;22490;-72
2023/02/26 09:04:15;;;;;;;19.40;12.20;;;;;;;1.69;85.65;94510.88;106034;1276;758083;-72
2023/02/26 09:06:44;;;;;;;26.80;17.50;;;;;;;1.71;85.68;94511.05;106577;1262;24226;-72
2023/02/26 09:09:13;;;;;;;19.40;13.80;;;;;;;1.75;85.53;94515.38;106560;1276;22528;-72
2023/02/26 09:24:04;;;;;;;9.90;6.50;;;;;;;2.71;82.69;94525.55;104556;1297;558717;-71
2023/02/26 09:26:32;;;;;;;33.10;17.50;;;;;;;2.73;80.99;94530.08;106037;1286;160895;-72
2023/02/26 09:29:01;;;;;;;38.10;21.50;;;;;;;2.65;81.68;94530.30;106264;1286;25328;-72
2023/02/26 09:31:29;;;;;;;22.20;12.00;;;;;;;2.62;82.11;94531.71;106296;1286;24249;-71
2023/02/26 09:33:57;;;;;;;23.20;13.40;;;;;;;2.62;82.04;94533.09;106248;1286;25173;-71
2023/02/26 09:36:26;;;;;;;45.40;22.60;;;;;;;2.58;82.05;94535.00;106302;1286;25405;-72
2023/02/26 09:38:55;;;;;;;35.50;19.00;;;;;;;2.63;82.52;94533.95;106292;1286;22546;-72
2023/02/26 09:41:31;;;;;;;47.10;22.90;;;;;;;2.71;82.77;94535.82;106274;1286;24373;-72
2023/02/26 09:44:23;;;;;;;56.50;30.30;;;;;;;2.82;82.33;94531.06;106178;1286;22523;-71
2023/02/26 09:47:00;;;;;;;19.60;10.40;;;;;;;2.88;81.75;94532.08;105931;1286;22617;-71
2023/02/26 09:49:58;;;;;;;22.00;13.90;;;;;;;2.92;81.40;94533.61;105942;1285;24359;-72
2023/02/26 09:52:40;;;;;;;25.00;13.80;;;;;;;2.94;81.40;94537.24;106293;1286;23899;-71
2023/02/26 09:55:14;;;;;;;18.50;11.80;;;;;;;2.98;81.17;94535.48;106362;1282;22524;-71
2023/02/26 09:57:45;;;;;;;18.00;10.60;;;;;;;3.04;81.29;94546.91;106395;1283;23409;-71
2023/02/26 10:00:29;;;;;;;29.20;15.90;;;;;;;3.11;80.98;94548.79;106287;1283;22534;-71
2023/02/26 10:03:11;;;;;;;10.20;5.30;;;;;;;2.98;79.88;94549.73;106271;1283;25353;-71
2023/02/26 10:05:49;;;;;;;14.70;7.40;;;;;;;2.83;80.09;94552.60;106327;1282;24351;-71
2023/02/26 10:08:18;;;;;;;13.30;8.00;;;;;;;2.83;81.02;94555.55;106289;1267;22641;-71
2023/02/26 10:10:50;;;;;;;22.70;13.40;;;;;;;2.85;81.08;94558.66;106219;1282;23893;-71
2023/02/26 10:13:34;;;;;;;26.80;18.60;;;;;;;2.82;80.91;94563.20;106206;1282;25227;-70
2023/02/26 10:16:24;;;;;;;19.30;11.00;;;;;;;2.70;80.83;94570.20;106167;1283;24211;-71
2023/02/26 10:18:59;;;;;;;20.00;11.70;;;;;;;2.62;81.13;94573.36;106181;1282;22523;-71
2023/02/26 10:22:09;;;;;;;26.40;13.70;;;;;;;2.54;81.30;94569.77;106367;1283;22538;-71
2023/02/26 10:24:42;;;;;;;25.10;13.20;;;;;;;2.55;81.77;94571.84;105953;1283;22517;-71
2023/02/26 10:27:19;;;;;;;38.80;20.20;;;;;;;2.49;81.52;94567.70;106169;1283;25331;-71
2023/02/26 10:29:56;;;;;;;43.10;23.40;;;;;;;2.34;82.02;94572.42;106130;1283;24183;-70
2023/02/26 10:32:35;;;;;;;27.20;15.90;;;;;;;2.24;82.23;94578.89;106143;1283;22599;-70
2023/02/26 10:35:15;;;;;;;15.20;8.40;;;;;;;2.29;82.48;94581.81;106165;1282;25250;-70
2023/02/26 10:37:51;;;;;;;16.90;10.20;;;;;;;2.36;82.47;94577.98;106171;1283;23963;-70
2023/02/26 10:40:32;;;;;;;13.90;8.80;;;;;;;2.29;82.33;94583.73;106180;1283;22555;-70
2023/02/26 10:43:21;;;;;;;26.80;15.40;;;;;;;2.32;82.43;94589.45;106188;1283;22530;-70
2023/02/26 10:46:13;;;;;;;49.00;25.70;;;;;;;2.24;82.52;94596.94;106385;1283;22795;-70
2023/02/26 10:49:06;;;;;;;48.10;26.60;;;;;;;2.23;82.82;94593.64;105973;1278;22532;-71
2023/02/26 10:51:37;;;;;;;48.20;26.90;;;;;;;2.30;83.24;94594.66;106184;1283;22585;-71
2023/02/26 10:54:26;;;;;;;24.50;16.10;;;;;;;2.47;83.17;94592.19;106136;1283;24238;-71
2023/02/26 10:56:54;;;;;;;14.60;9.70;;;;;;;2.53;82.10;94595.11;106162;1283;22606;-71
2023/02/26 10:59:23;;;;;;;13.90;9.40;;;;;;;2.45;81.84;94597.56;106086;1283;25358;-71
2023/02/26 11:01:52;;;;;;;18.20;10.00;;;;;;;2.43;82.13;94597.40;106139;1283;24202;-71
2023/02/26 11:04:22;;;;;;;28.60;17.50;;;;;;;2.46;82.16;94596.87;106216;1283;25396;-71
2023/02/26 11:06:59;;;;;;;18.30;11.60;;;;;;;2.45;82.02;94595.14;106162;1283;22534;-71
2023/02/26 11:09:36;;;;;;;23.90;17.50;;;;;;;2.57;82.30;94597.70;106212;1283;25213;-71
2023/02/26 11:12:06;;;;;;;18.20;13.70;;;;;;;2.65;82.05;94595.93;106185;1283;25335;-71
2023/02/26 11:14:36;;;;;;;10.90;8.10;;;;;;;2.71;81.33;94594.17;106192;1283;25374;-71
2023/02/26 11:17:16;;;;;;;13.90;9.40;;;;;;;2.71;81.38;94598.17;106178;1283;22653;-71
2023/02/26 11:19:53;;;;;;;16.80;11.90;;;;;;;2.71;81.58;94599.38;106206;1283;25284;-71
2023/02/26 11:22:24;;;;;;;10.10;7.90;;;;;;;2.73;81.25;94602.14;106219;1283;22542;-70
2023/02/26 11:24:53;;;;;;;12.60;9.50;;;;;;;2.71;81.10;94601.80;106183;1283;25229;-71
2023/02/26 11:27:29;;;;;;;15.40;9.80;;;;;;;2.68;81.16;94606.33;106197;1283;25443;-71
2023/02/26 11:30:02;;;;;;;36.10;18.60;;;;;;;2.68;81.41;94610.69;106167;1283;24213;-71
2023/02/26 11:32:32;;;;;;;;;;;;;;;2.71;81.60;94614.48;106212;1283;22511;-71
2023/02/26 11:35:01;;;;;;;35.00;17.50;;;;;;;2.73;81.14;94615.17;106195;1283;24359;-71
2023/02/26 11:37:35;;;;;;;23.00;11.80;;;;;;;2.71;81.12;94617.25;106209;1283;22528;-71
2023/02/26 11:40:10;;;;;;;26.90;16.70;;;;;;;2.69;81.10;94616.73;106177;1283;22595;-70
2023/02/26 11:42:48;;;;;;;22.80;15.80;;;;;;;2.67;81.14;94616.75;106153;1283;26647;-71
2023/02/26 11:45:18;;;;;;;13.10;8.80;;;;;;;2.59;81.23;94612.27;106344;1283;22530;-71
2023/02/26 11:47:49;;;;;;;6.80;5.90;;;;;;;2.60;81.58;94624.95;106218;1283;22755;-71
2023/02/26 11:50:22;;;;;;;20.00;12.00;;;;;;;2.61;81.38;94619.90;106165;1283;22579;-71
2023/02/26 11:52:56;;;;;;;11.50;8.00;;;;;;;2.57;81.27;94624.60;106224;1282;25402;-71
2023/02/26 11:55:33;;;;;;;4.60;4.10;;;;;;;2.50;81.57;94628.96;106216;1283;24819;-71
2023/02/26 11:58:13;;;;;;;8.50;7.60;;;;;;;2.45;81.70;94626.02;106176;1283;22650;-71
2023/02/26 12:00:43;;;;;;;10.50;9.20;;;;;;;2.37;81.98;94630.74;106160;1283;25786;-70
2023/02/26 12:03:21;;;;;;;10.00;7.90;;;;;;;2.36;82.42;94631.45;106134;1283;22520;-71
2023/02/26 12:05:52;;;;;;;17.70;13.30;;;;;;;2.32;82.68;94631.27;106147;1283;25312;-71
2023/02/26 12:08:38;;;;;;;23.60;18.60;;;;;;;2.33;82.74;94636.48;106170;1283;25405;-71